KFMH

Cape Cod Coast Guard Air Station Airport

Falmouth, Massachusetts, USA
METAR KFMH 231135Z AUTO 13005KT 10SM OVC095 06/05 A3016 RMK AO2
Observed Flight Rules
Oct-23 @ 11:35 UTC (17 minutes ago) Visual Flight Rules
Wind Visibility Clouds
130° at 5 knots 10 miles
  • Overcast at 9,500' AGL
Temperatures Readings
Current 6°C / 43°F
Dewpoint 5°C / 41°F
Humidity 93%
Altimeter 30.16" Hg
Pressure 1021 hPa
Elevation 40
METAR KFMH 231135Z AUTO 13005KT 10SM OVC095 06/05 A3016 RMK AO2
Observed Flight Rules
Oct-23 @ 11:35 UTC
(17 minutes ago)
VFR
Wind Visibility
130° at 5 knots 10 miles
Clouds
  • Overcast at 9,500' AGL
Temperature Dewpoint
6°C / 43°F 5°C / 41°F
Humidity Altimeter Pressure
93% 30.16" Hg 1021 hPa